• Join FlightAware (Why Join?)
  • Login
  • US Flag 
09:12AM EDT


 

Airport Tracker/Info


-or-


 

Live Flight TrackerFlight Track Log ✈ UAL822 ✈ 29-Apr-2013 ✈ KORD - KIAD

Flight Track Log - Related Links

Times and Time Zones

All times are in EDT time to prevent confusion due to time zone crossing. See the UAL822 flight status page for this flight to view local times or setup timezone preferences in your user account.

Time Position Orientation Groundspeed Altitude Reporting Facility
EDT Latitude Longitude Course Direction KTS MPH feet Rate Location/Type
12:29PM 41.9167 -87.8500 90° East 152 175 3,900  Level Chicago TRACON
12:30PM 41.9574 -87.4480 97° East  Level FlightAware Approximate
12:30PM 41.9000 -87.7833 109° East 237 273 5,300  Level Chicago TRACON
12:31PM 41.9448 -87.2981 96° East  Level FlightAware Approximate
12:31PM 41.9106 -87.6428 84° East 281 323 9,800  Level Chicago Center
12:32PM 41.9333 -87.1480 90° East  Level FlightAware Approximate
12:32PM 41.9167 -87.5019 87° East 313 360 13,600  Level Chicago Center
12:33PM 41.9333 -86.9971 90° East  Level FlightAware Approximate
12:33PM 41.9247 -87.3803 85° East 326 375 15,000  Level Chicago Center
12:34PM 41.9334 -86.8463 90° East  Level FlightAware Approximate
12:34PM 41.9250 -87.2503 90° East 347 399 15,700  Level Chicago Center
12:35PM 41.9092 -87.1036 98° East 390 449 18,300 2,280 Climbing Chicago Center
12:37PM 41.8942 -86.9542 98° East 403 464 20,500 1,920 Climbing Chicago Center
12:38PM 41.8797 -86.7997 97° East 415 478 22,300 1,980 Climbing Chicago Center
12:39PM 41.8653 -86.6183 96° East 436 502 24,600 1,860 Climbing Chicago Center
12:40PM 41.8542 -86.4519 95° East 446 513 26,200 1,560 Climbing Chicago Center
12:41PM 41.8428 -86.2828 95° East 455 524 27,900 1,440 Climbing Chicago Center
12:42PM 41.8308 -86.1097 95° East 464 534 29,200 1,320 Climbing Chicago Center
12:43PM 41.8164 -85.8944 95° East 481 554 30,700 1,620 Climbing Chicago Center
12:44PM 41.8039 -85.7164 95° East 479 551 32,600 1,500 Climbing Chicago Center
12:45PM 41.7661 -85.5456 106° East 477 549 33,800 1,020 Climbing Chicago Center
12:46PM 41.7158 -85.3983 115° Southeast 480 552 34,800 1,080 Climbing Chicago Center
12:47PM 41.6536 -85.2058 113° Southeast 498 573 36,100 1,020 Climbing Chicago Center
12:48PM 41.5972 -85.0419 115° Southeast 488 562 37,000 420 Climbing Chicago Center
12:49PM 41.5419 -84.8800 114° Southeast 482 555 37,000  Level Chicago Center
12:50PM 41.4861 -84.7208 115° Southeast 476 548 37,000  Level Chicago Center
12:51PM 41.4147 -84.5208 115° Southeast 476 548 37,000  Level Cleveland Center
12:52PM 41.3539 -84.3808 120° Southeast 471 542 37,000  Level Chicago Center
12:53PM 41.2797 -84.2378 125° Southeast 471 542 37,000 -60 Level Chicago Center
12:54PM 41.2058 -84.0942 124° Southeast 473 544 36,900  Descending Chicago Center
12:55PM 41.1336 -83.9497 124° Southeast 470 541 37,000 60 Climbing Chicago Center
12:55PM 41.1131 -83.9053 122° Southeast 469 540 37,000  Level Indianapolis Center
12:56PM 41.0786 -83.8006 114° Southeast 476 548 37,000  Level Cleveland Center
12:57PM 41.0206 -83.6436 116° Southeast 470 541 37,000  Level Cleveland Center
01:00PM 40.8758 -83.2494 116° Southeast 468 539 37,000  Level Indianapolis Center
01:01PM 40.8186 -83.0925 116° Southeast 471 542 37,000  Level Indianapolis Center
01:02PM 40.7597 -82.9372 117° Southeast 471 542 37,000  Level Indianapolis Center
01:03PM 40.7011 -82.7819 116° Southeast 471 542 37,000  Level Indianapolis Center
01:04PM 40.6436 -82.6275 116° Southeast 468 539 37,000  Level Indianapolis Center
01:05PM 40.5864 -82.4731 116° Southeast 467 537 37,000  Level Indianapolis Center
01:06PM 40.5194 -82.2953 116° Southeast 465 535 37,000  Level Indianapolis Center
01:07PM 40.4619 -82.1444 117° Southeast 462 532 37,000  Level Indianapolis Center
01:07PM 40.4186 -82.0311 117° Southeast 461 531 37,000  Level Cleveland Center
01:08PM 40.3661 -81.8939 117° Southeast 454 522 37,000  Level Cleveland Center
01:09PM 40.3450 -81.8414 118° Southeast 462 532 37,000  Level Indianapolis Center
01:10PM 40.2872 -81.6900 117° Southeast 463 533 37,000  Level Indianapolis Center
01:10PM 40.2461 -81.5814 116° Southeast 460 529 37,000  Level Cleveland Center
01:11PM 40.1892 -81.4311 116° Southeast 460 529 37,000  Level Cleveland Center
01:12PM 40.1317 -81.2808 117° Southeast 455 524 37,000  Level Cleveland Center
01:13PM 40.1008 -81.2128 121° Southeast 464 534 37,000  Level Indianapolis Center
01:14PM 40.0406 -81.0617 117° Southeast 466 536 37,000  Level Indianapolis Center
01:14PM 40.0144 -80.9814 113° Southeast 455 524 37,000  Level Cleveland Center
01:15PM 39.9544 -80.8350 118° Southeast 455 524 37,000  Level Cleveland Center
01:16PM 39.8942 -80.6806 117° Southeast 455 524 37,000  Level Cleveland Center
01:17PM 39.8317 -80.5317 119° Southeast 455 524 37,000  Level Cleveland Center
01:18PM 39.7711 -80.3778 117° Southeast 461 531 37,100  Climbing Cleveland Center
01:19PM 39.7103 -80.2242 117° Southeast 466 536 37,100 -1,080 Level Cleveland Center
01:22PM 39.5858 -79.9242 118° Southeast 466 536 33,900 -2,040 Descending Washington Center
01:23PM 39.5433 -79.7683 109° East 461 531 30,800 -3,060 Descending Washington Center
01:24PM 39.5136 -79.6053 103° East 461 531 27,800 -1,920 Descending Washington Center
01:25PM 39.4872 -79.4503 102° East 461 531 27,000 -660 Descending Washington Center
01:26PM 39.4586 -79.2983 104° East 448 516 26,500 -1,980 Descending Washington Center
01:27PM 39.4300 -79.1492 104° East 436 502 23,200 -2,640 Descending Washington Center
01:28PM 39.4028 -79.0028 103° East 425 489 21,200 -1,920 Descending Washington Center
01:29PM 39.3797 -78.8647 102° East 412 474 19,400 -1,800 Descending Washington Center
01:30PM 39.3561 -78.7319 103° East 390 449 17,700 -1,800 Descending Washington Center
01:31PM 39.3303 -78.6022 104° East 379 436 15,900 -1,800 Descending Washington Center
01:32PM 39.3083 -78.4750 103° East 368 423 14,200 -1,680 Descending Washington Center
01:33PM 39.2839 -78.3589 105° East 354 407 12,600 -1,500 Descending Washington Center
01:34PM 39.2358 -78.2686 124° Southeast 323 372 11,200 -1,380 Descending Washington Center
01:35PM 39.1897 -78.1839 125° Southeast 304 350 9,900 -1,320 Descending Washington Center
01:36PM 39.1458 -78.0994 124° Southeast 292 336 8,600 -1,380 Descending Washington Center
01:37PM 39.0994 -78.0147 125° Southeast 292 336 7,300 -960 Descending Washington Center
01:38PM 39.0575 -77.9306 123° Southeast 292 336 6,700 -720 Descending Washington Center
01:39PM 39.0111 -77.8464 125° Southeast 282 325 5,900 -420 Descending Washington Center
01:40PM 38.9750 -77.7758 123° Southeast 267 307 5,900  Level Washington Center
01:41PM 38.9558 -77.6764 104° East 256 295 5,900  Level Washington Center
01:41PM 38.9500 -77.6167 97° East 273 314 5,900  Level Potomac TRACON
01:42PM 39.0167 -77.5667 30° Northeast 280 322 5,900  Level Potomac TRACON
01:43PM 39.0833 -77.5667 360° North 209 241 6,000 -420 Climbing Potomac TRACON
01:44PM 39.1333 -77.5667 360° North 196 226 5,100 -540 Descending Potomac TRACON
01:45PM 39.2000 -77.5833 349° North 200 230 5,000 -540 Descending Potomac TRACON
01:46PM 39.2167 -77.5333 67° East 192 221 4,100 -960 Descending Potomac TRACON
01:47PM 39.2000 -77.4833 113° Southeast 168 193 3,100 -600 Descending Potomac TRACON
01:48PM 39.1667 -77.4667 159° South 164 189 3,000 -60 Descending Potomac TRACON
01:49PM 39.1167 -77.4500 165° South 164 189 3,000  Level Potomac TRACON